Time;durP1;ratioP1;P1;durP2;ratioP2;P2;SDS_P1;SDS_P2;PMS_P1;PMS_P2;Temp;Humidity;BMP_temperature;BMP_pressure;BME280_temperature;BME280_humidity;BME280_pressure;Samples;Min_cycle;Max_cycle;Signal;HPM_P1;HPM_P2
2022/05/30 00:01:52;;;;;;;2.00;1.42;;;;;;;;;;4994238;28;95085;-74
2022/05/30 00:04:18;;;;;;;1.77;1.40;;;;;;;;;;4992154;28;96799;-73
2022/05/30 00:06:44;;;;;;;2.38;1.50;;;;;;;;;;4993729;28;97393;-73
2022/05/30 00:09:13;;;;;;;2.15;1.42;;;;;;;;;;4990619;28;95370;-72
2022/05/30 00:11:43;;;;;;;3.65;1.75;;;;;;;;;;4973404;28;97795;-75
2022/05/30 00:14:09;;;;;;;2.55;1.27;;;;;;;;;;4974448;28;97105;-72
2022/05/30 00:16:36;;;;;;;3.05;1.40;;;;;;;;;;4983974;28;95327;-72
2022/05/30 00:19:02;;;;;;;3.20;1.38;;;;;;;;;;4994100;28;95644;-70
2022/05/30 00:21:29;;;;;;;1.30;1.13;;;;;;;;;;4989427;28;97327;-71
2022/05/30 00:23:58;;;;;;;2.22;1.40;;;;;;;;;;4974247;28;96807;-72
2022/05/30 00:26:27;;;;;;;1.48;1.20;;;;;;;;;;4977857;28;97326;-72
2022/05/30 00:28:53;;;;;;;1.73;1.30;;;;;;;;;;4993697;28;95637;-70
2022/05/30 00:31:20;;;;;;;3.72;1.58;;;;;;;;;;4992049;28;96146;-77
2022/05/30 00:33:47;;;;;;;2.83;1.50;;;;;;;;;;4993166;28;96092;-72
2022/05/30 00:36:13;;;;;;;2.13;1.17;;;;;;;;;;4992943;28;95413;-73
2022/05/30 00:38:40;;;;;;;2.97;1.75;;;;;;;;;;4994234;28;96962;-70
2022/05/30 00:41:07;;;;;;;3.72;1.77;;;;;;;;;;4995101;28;97347;-75
2022/05/30 00:43:36;;;;;;;2.35;1.38;;;;;;;;;;4993642;28;99590;-76
2022/05/30 00:46:06;;;;;;;2.83;1.63;;;;;;;;;;4993581;28;97594;-73
2022/05/30 00:48:34;;;;;;;3.05;1.40;;;;;;;;;;4993932;28;95348;-73
2022/05/30 00:51:05;;;;;;;1.60;1.20;;;;;;;;;;4991517;28;96817;-71
2022/05/30 00:53:33;;;;;;;1.92;1.30;;;;;;;;;;4993163;28;97649;-73
2022/05/30 00:56:02;;;;;;;4.10;1.50;;;;;;;;;;4993529;28;95781;-73
2022/05/30 00:58:29;;;;;;;2.58;1.20;;;;;;;;;;4993231;28;96700;-74
2022/05/30 01:00:56;;;;;;;2.85;1.33;;;;;;;;;;4991968;28;97310;-70
2022/05/30 01:08:53;;;;;;;2.50;1.50;;;;;;;;;;4993641;28;95361;-73
2022/05/30 01:11:19;;;;;;;1.55;1.27;;;;;;;;;;4990987;28;96828;-77
2022/05/30 01:13:45;;;;;;;3.13;1.52;;;;;;;;;;4993695;28;97401;-73
2022/05/30 01:16:12;;;;;;;2.38;1.40;;;;;;;;;;4993532;28;95115;-74
2022/05/30 01:18:42;;;;;;;1.92;1.50;;;;;;;;;;4991654;28;95644;-71
2022/05/30 01:21:32;;;;;;;1.20;1.10;;;;;;;;;;4983067;28;97317;-74
2022/05/30 01:24:14;;;;;;;1.73;1.20;;;;;;;;;;4979012;28;95080;-71
2022/05/30 01:26:47;;;;;;;3.72;1.20;;;;;;;;;;4996040;28;97577;-71
2022/05/30 01:29:20;;;;;;;1.63;1.02;;;;;;;;;;4993003;28;95314;-73
2022/05/30 01:31:46;;;;;;;0.98;0.90;;;;;;;;;;4992162;28;96662;-72
2022/05/30 01:34:13;;;;;;;1.02;0.95;;;;;;;;;;4992567;28;97213;-72
2022/05/30 01:36:39;;;;;;;1.10;1.00;;;;;;;;;;4989014;28;95253;-71
2022/05/30 01:39:05;;;;;;;1.42;1.08;;;;;;;;;;4993279;28;96918;-71
2022/05/30 01:41:32;;;;;;;2.95;1.10;;;;;;;;;;4990827;28;97513;-76
2022/05/30 01:43:58;;;;;;;6.45;1.13;;;;;;;;;;4992674;28;95173;-75
2022/05/30 01:46:26;;;;;;;1.63;1.05;;;;;;;;;;4991765;28;96871;-72
2022/05/30 01:48:53;;;;;;;1.10;0.90;;;;;;;;;;4996247;28;97230;-74
2022/05/30 01:51:20;;;;;;;1.20;0.90;;;;;;;;;;4990253;28;96623;-74
2022/05/30 01:53:46;;;;;;;2.80;1.25;;;;;;;;;;4992100;28;97784;-73
2022/05/30 01:56:14;;;;;;;1.42;1.00;;;;;;;;;;4993125;28;95209;-72
2022/05/30 01:58:41;;;;;;;1.83;0.90;;;;;;;;;;4993036;28;96844;-71
2022/05/30 02:01:16;;;;;;;1.55;0.88;;;;;;;;;;4990601;28;97472;-76
2022/05/30 02:03:43;;;;;;;0.95;0.90;;;;;;;;;;4990740;28;95266;-71
2022/05/30 02:06:10;;;;;;;1.42;1.00;;;;;;;;;;4991690;28;97236;-70
2022/05/30 02:08:36;;;;;;;1.40;1.08;;;;;;;;;;4991688;28;97474;-76
2022/05/30 02:11:03;;;;;;;1.60;1.08;;;;;;;;;;4994041;28;95361;-71
2022/05/30 02:13:29;;;;;;;3.47;1.33;;;;;;;;;;4992186;28;97844;-72
2022/05/30 02:18:41;;;;;;;3.35;1.85;;;;;;;;;;4992503;28;97184;-76
2022/05/30 02:21:08;;;;;;;1.38;1.10;;;;;;;;;;4990293;28;97169;-72
2022/05/30 02:23:34;;;;;;;1.63;1.20;;;;;;;;;;4992110;28;95112;-72
2022/05/30 02:26:00;;;;;;;2.22;1.30;;;;;;;;;;4992311;28;96548;-73
2022/05/30 02:28:27;;;;;;;1.55;1.25;;;;;;;;;;4991854;28;97432;-72
2022/05/30 02:30:53;;;;;;;2.92;1.55;;;;;;;;;;4992130;28;95339;-75
2022/05/30 02:39:03;;;;;;;2.25;1.40;;;;;;;;;;4978709;28;97135;-71
2022/05/30 02:41:30;;;;;;;2.55;1.35;;;;;;;;;;4995058;28;97325;-74
2022/05/30 02:43:57;;;;;;;4.47;1.42;;;;;;;;;;4995623;28;95259;-73
2022/05/30 02:46:24;;;;;;;2.25;1.20;;;;;;;;;;4995445;28;96944;-75
2022/05/30 02:48:50;;;;;;;2.33;1.38;;;;;;;;;;4994629;28;97325;-75
2022/05/30 02:51:17;;;;;;;1.90;1.38;;;;;;;;;;4993959;28;95502;-75
2022/05/30 02:53:43;;;;;;;3.75;2.00;;;;;;;;;;4998433;28;96825;-75
2022/05/30 02:56:13;;;;;;;2.72;1.30;;;;;;;;;;4995203;28;95311;-77
2022/05/30 02:58:39;;;;;;;1.63;1.33;;;;;;;;;;4990560;28;96728;-73
2022/05/30 03:01:06;;;;;;;2.05;1.33;;;;;;;;;;4993170;28;97114;-72
2022/05/30 03:03:32;;;;;;;2.10;1.33;;;;;;;;;;4993524;28;95276;-71
2022/05/30 03:05:59;;;;;;;1.38;1.20;;;;;;;;;;4993816;28;97285;-73
2022/05/30 03:08:25;;;;;;;1.85;1.38;;;;;;;;;;4995006;28;97302;-71
2022/05/30 03:10:51;;;;;;;2.00;1.20;;;;;;;;;;4990366;28;95456;-73
2022/05/30 03:13:18;;;;;;;2.75;1.50;;;;;;;;;;4995179;28;96505;-77
2022/05/30 03:15:44;;;;;;;3.30;1.23;;;;;;;;;;4998121;28;96038;-71
2022/05/30 03:18:10;;;;;;;2.08;1.50;;;;;;;;;;4994922;28;97196;-74
2022/05/30 03:20:37;;;;;;;2.05;1.40;;;;;;;;;;4992710;28;97388;-72
2022/05/30 03:23:06;;;;;;;1.88;1.27;;;;;;;;;;4995390;28;95302;-71
2022/05/30 03:25:32;;;;;;;1.80;1.30;;;;;;;;;;4993862;28;97219;-73
2022/05/30 03:27:59;;;;;;;1.73;1.40;;;;;;;;;;4994227;28;97519;-71
2022/05/30 03:30:26;;;;;;;1.05;0.95;;;;;;;;;;4992756;28;95143;-74
2022/05/30 03:32:52;;;;;;;1.40;1.15;;;;;;;;;;4994691;28;96718;-72
2022/05/30 03:35:18;;;;;;;1.52;1.35;;;;;;;;;;4994556;28;97351;-74
2022/05/30 03:37:45;;;;;;;1.48;1.15;;;;;;;;;;4980486;28;95190;-73
2022/05/30 03:40:12;;;;;;;1.85;1.23;;;;;;;;;;4992853;28;97428;-73
2022/05/30 03:42:38;;;;;;;1.42;1.17;;;;;;;;;;4990656;28;96571;-72
2022/05/30 03:45:06;;;;;;;1.40;1.00;;;;;;;;;;4993511;28;96777;-75
2022/05/30 03:47:42;;;;;;;2.65;1.70;;;;;;;;;;4994024;28;100687;-70
2022/05/30 03:50:11;;;;;;;1.45;1.17;;;;;;;;;;4993032;28;95906;-73
2022/05/30 03:52:37;;;;;;;1.95;1.27;;;;;;;;;;4994083;28;96830;-74
2022/05/30 03:55:04;;;;;;;1.80;1.05;;;;;;;;;;4994012;28;97221;-73
2022/05/30 03:57:31;;;;;;;1.90;1.30;;;;;;;;;;4994518;28;95407;-74
2022/05/30 03:59:57;;;;;;;1.40;1.10;;;;;;;;;;4996087;28;96943;-72
2022/05/30 04:02:25;;;;;;;2.35;1.30;;;;;;;;;;4975813;28;95366;-77
2022/05/30 04:04:51;;;;;;;2.35;1.60;;;;;;;;;;4974858;28;96691;-76
2022/05/30 04:07:17;;;;;;;2.78;1.52;;;;;;;;;;4974154;28;97304;-71
2022/05/30 04:09:44;;;;;;;1.13;1.00;;;;;;;;;;4992046;28;95186;-71
2022/05/30 04:12:11;;;;;;;1.63;1.20;;;;;;;;;;4985639;28;96392;-74
2022/05/30 04:14:37;;;;;;;2.13;1.27;;;;;;;;;;4990821;28;96947;-76
2022/05/30 04:17:03;;;;;;;3.83;1.17;;;;;;;;;;4994483;28;94951;-73
2022/05/30 04:19:30;;;;;;;1.40;1.20;;;;;;;;;;4994136;28;96118;-73
2022/05/30 04:21:56;;;;;;;2.90;1.35;;;;;;;;;;4995595;28;97200;-74
2022/05/30 04:24:22;;;;;;;1.88;1.33;;;;;;;;;;4994014;28;96810;-72
2022/05/30 04:26:54;;;;;;;1.20;1.10;;;;;;;;;;4993765;28;96371;-73
2022/05/30 04:29:20;;;;;;;1.77;1.33;;;;;;;;;;4992030;28;95269;-73
2022/05/30 04:31:46;;;;;;;1.20;1.05;;;;;;;;;;4994678;28;96721;-74
2022/05/30 04:34:13;;;;;;;1.77;1.30;;;;;;;;;;4992688;28;97290;-77
2022/05/30 04:36:39;;;;;;;1.48;1.17;;;;;;;;;;4993533;28;95315;-73
2022/05/30 20:09:54;;;;;;;5.20;2.08;;;;;;;;;;4991134;28;96514;-71
2022/05/30 20:12:21;;;;;;;3.65;2.47;;;;;;;;;;4993903;28;96011;-71
2022/05/30 20:14:47;;;;;;;4.85;2.75;;;;;;;;;;4984763;28;97518;-71
2022/05/30 20:17:14;;;;;;;4.20;2.58;;;;;;;;;;4988679;28;95780;-72
2022/05/30 20:19:41;;;;;;;5.00;2.92;;;;;;;;;;4994616;28;98164;-72
2022/05/30 20:22:07;;;;;;;5.75;3.28;;;;;;;;;;4989387;28;95482;-71
2022/05/30 20:24:34;;;;;;;4.53;2.58;;;;;;;;;;4987157;28;97494;-71
2022/05/30 20:27:01;;;;;;;4.25;2.80;;;;;;;;;;4992012;28;97302;-71
2022/05/30 20:29:28;;;;;;;5.65;3.05;;;;;;;;;;4994978;28;96691;-71
2022/05/30 20:31:57;;;;;;;4.82;2.85;;;;;;;;;;4989632;28;96285;-70
2022/05/30 20:34:24;;;;;;;5.63;2.92;;;;;;;;;;4993026;28;97155;-72
2022/05/30 20:36:50;;;;;;;7.20;3.03;;;;;;;;;;4993524;28;96759;-73
2022/05/30 20:39:16;;;;;;;4.38;2.95;;;;;;;;;;4988655;28;97783;-72
2022/05/30 20:44:27;;;;;;;4.60;2.83;;;;;;;;;;4991745;28;95757;-71
2022/05/30 20:46:55;;;;;;;4.90;3.00;;;;;;;;;;5008491;28;96322;-75
2022/05/30 20:49:22;;;;;;;5.45;3.17;;;;;;;;;;4992989;28;96267;-71
2022/05/30 20:51:49;;;;;;;5.00;3.33;;;;;;;;;;4995578;28;96493;-73
2022/05/30 20:54:15;;;;;;;6.97;3.10;;;;;;;;;;4986699;28;97021;-70
2022/05/30 20:56:41;;;;;;;7.70;3.13;;;;;;;;;;4993918;28;96824;-73
2022/05/30 20:59:08;;;;;;;4.65;3.08;;;;;;;;;;4998208;28;96679;-74
2022/05/30 21:01:35;;;;;;;11.07;3.42;;;;;;;;;;4997474;28;95410;-72
2022/05/30 21:04:01;;;;;;;5.03;3.40;;;;;;;;;;4993132;28;95726;-74
2022/05/30 21:06:28;;;;;;;5.63;3.20;;;;;;;;;;4983779;28;97673;-73
2022/05/30 21:08:59;;;;;;;5.37;3.17;;;;;;;;;;4985575;28;97458;-74
2022/05/30 21:11:25;;;;;;;5.70;3.05;;;;;;;;;;4984295;28;96927;-74
2022/05/30 21:13:53;;;;;;;7.63;3.40;;;;;;;;;;4991313;28;97318;-72
2022/05/30 21:16:21;;;;;;;7.03;3.55;;;;;;;;;;4988985;28;96709;-75
2022/05/30 21:18:48;;;;;;;5.30;3.13;;;;;;;;;;4988541;28;97324;-76
2022/05/30 21:21:17;;;;;;;5.05;3.33;;;;;;;;;;4974761;28;96255;-72
2022/05/30 21:23:43;;;;;;;6.13;3.33;;;;;;;;;;4974248;28;95188;-71
2022/05/30 21:26:10;;;;;;;10.68;3.35;;;;;;;;;;4973970;28;97287;-72
2022/05/30 21:28:36;;;;;;;6.80;3.42;;;;;;;;;;4973036;28;95511;-73
2022/05/30 21:31:03;;;;;;;11.30;3.65;;;;;;;;;;4974323;28;96799;-72
2022/05/30 21:33:45;;;;;;;4.75;3.15;;;;;;;;;;4974345;28;97268;-74
2022/05/30 21:36:16;;;;;;;7.32;3.45;;;;;;;;;;4977436;28;95274;-74
2022/05/30 21:38:43;;;;;;;5.10;3.28;;;;;;;;;;4974246;28;97609;-73
2022/05/30 21:41:10;;;;;;;4.95;3.03;;;;;;;;;;4974177;28;95208;-73
2022/05/30 21:43:36;;;;;;;6.18;3.70;;;;;;;;;;4973741;28;96813;-72
2022/05/30 21:46:03;;;;;;;7.80;3.03;;;;;;;;;;4970173;28;96543;-72
2022/05/30 21:48:29;;;;;;;4.65;3.25;;;;;;;;;;4974937;28;95369;-74
2022/05/30 21:50:56;;;;;;;5.47;3.05;;;;;;;;;;4974856;28;96145;-74
2022/05/30 21:53:22;;;;;;;7.57;3.42;;;;;;;;;;4973812;28;97831;-72
2022/05/30 21:55:50;;;;;;;4.85;2.95;;;;;;;;;;4975248;28;95652;-71
2022/05/30 21:58:16;;;;;;;6.30;3.00;;;;;;;;;;4977522;28;96868;-72
2022/05/30 22:00:47;;;;;;;6.45;3.20;;;;;;;;;;4974439;28;95416;-71
2022/05/30 22:03:16;;;;;;;5.10;3.47;;;;;;;;;;4974535;28;96731;-73
2022/05/30 22:05:44;;;;;;;5.20;3.13;;;;;;;;;;4974670;28;97808;-72
2022/05/30 22:08:12;;;;;;;5.03;3.33;;;;;;;;;;4974007;28;95934;-71
2022/05/30 22:10:38;;;;;;;6.18;3.35;;;;;;;;;;4974158;28;96821;-71
2022/05/30 22:13:09;;;;;;;5.80;3.20;;;;;;;;;;4973668;28;97456;-70
2022/05/30 22:15:36;;;;;;;5.90;3.53;;;;;;;;;;4973436;28;95353;-73
2022/05/30 22:18:03;;;;;;;5.32;3.42;;;;;;;;;;4974168;28;96785;-71
2022/05/30 22:20:31;;;;;;;4.90;3.15;;;;;;;;;;4977556;28;96365;-72
2022/05/30 22:22:58;;;;;;;6.45;3.70;;;;;;;;;;4974232;28;97003;-71
2022/05/30 22:25:27;;;;;;;5.07;3.28;;;;;;;;;;4973826;28;96991;-71
2022/05/30 22:27:54;;;;;;;4.93;3.42;;;;;;;;;;4974699;28;95333;-72
2022/05/30 22:30:25;;;;;;;4.95;3.30;;;;;;;;;;4972115;28;96906;-73
2022/05/30 22:32:52;;;;;;;6.45;3.55;;;;;;;;;;4973102;28;97268;-73
2022/05/30 22:35:19;;;;;;;6.03;4.05;;;;;;;;;;4974564;28;95349;-73
2022/05/30 22:37:46;;;;;;;6.75;4.40;;;;;;;;;;4973924;28;96702;-73
2022/05/30 22:40:14;;;;;;;6.95;3.75;;;;;;;;;;4977081;28;97385;-74
2022/05/30 22:42:41;;;;;;;5.45;3.50;;;;;;;;;;4974436;28;95687;-72
2022/05/30 22:45:08;;;;;;;5.05;3.42;;;;;;;;;;4971276;28;97393;-74
2022/05/30 22:47:34;;;;;;;7.78;3.83;;;;;;;;;;4973994;28;96080;-73
2022/05/30 22:50:01;;;;;;;5.15;3.38;;;;;;;;;;4972827;28;96714;-74
2022/05/30 22:52:27;;;;;;;5.28;3.33;;;;;;;;;;4972028;28;97714;-74
2022/05/30 22:54:54;;;;;;;5.70;3.42;;;;;;;;;;4974237;28;95333;-73
2022/05/30 22:57:20;;;;;;;6.13;3.78;;;;;;;;;;4972670;28;96781;-71
2022/05/30 22:59:46;;;;;;;6.97;3.47;;;;;;;;;;4973549;28;97275;-72
2022/05/30 23:02:13;;;;;;;5.43;3.40;;;;;;;;;;4977858;28;95087;-72
2022/05/30 23:04:39;;;;;;;8.30;3.58;;;;;;;;;;4973065;28;97520;-70
2022/05/30 23:07:05;;;;;;;5.03;3.25;;;;;;;;;;4973626;28;95345;-71
2022/05/30 23:09:32;;;;;;;5.07;3.28;;;;;;;;;;4973141;28;97174;-73
2022/05/30 23:11:58;;;;;;;5.65;3.45;;;;;;;;;;4973926;28;97409;-70
2022/05/30 23:14:26;;;;;;;5.53;3.60;;;;;;;;;;4970070;28;95322;-71
2022/05/30 23:16:54;;;;;;;8.32;3.38;;;;;;;;;;4974232;28;96832;-71
2022/05/30 23:19:23;;;;;;;5.43;3.40;;;;;;;;;;4973158;28;96557;-70
2022/05/30 23:21:50;;;;;;;7.18;3.35;;;;;;;;;;4973532;28;95286;-72
2022/05/30 23:24:17;;;;;;;5.78;3.55;;;;;;;;;;4975593;28;95653;-72
2022/05/30 23:26:45;;;;;;;6.55;3.60;;;;;;;;;;4974025;28;95751;-70
2022/05/30 23:29:13;;;;;;;5.30;3.58;;;;;;;;;;4971019;28;95825;-71
2022/05/30 23:31:39;;;;;;;5.10;3.30;;;;;;;;;;4972167;28;96270;-70
2022/05/30 23:34:06;;;;;;;8.05;3.05;;;;;;;;;;4973887;28;95455;-71
2022/05/30 23:36:33;;;;;;;5.07;3.30;;;;;;;;;;4971448;28;96877;-73
2022/05/30 23:38:59;;;;;;;5.45;3.10;;;;;;;;;;4970527;28;97367;-73
2022/05/30 23:47:20;;;;;;;4.47;2.60;;;;;;;;;;4935049;28;96788;-73
2022/05/30 23:49:48;;;;;;;4.97;2.90;;;;;;;;;;4966225;28;97269;-72
2022/05/30 23:52:15;;;;;;;5.55;3.03;;;;;;;;;;4971134;28;97396;-71
2022/05/30 23:54:41;;;;;;;4.70;2.60;;;;;;;;;;4973344;28;95287;-72
2022/05/30 23:57:08;;;;;;;5.13;3.25;;;;;;;;;;4973217;28;96764;-73
2022/05/30 23:59:35;;;;;;;9.13;3.13;;;;;;;;;;4972333;28;96647;-71
